sensor_id;sensor_type;location;lat;lon;timestamp;P1;durP1;ratioP1;P2;durP2;ratioP2
43504;SDS011;29098;48.184;16.298;2024-03-25T00:01:13;1.92;;;1.02;;
43504;SDS011;29098;48.184;16.298;2024-03-25T00:03:38;2.72;;;1.20;;
43504;SDS011;29098;48.184;16.298;2024-03-25T00:06:04;3.00;;;1.20;;
43504;SDS011;29098;48.184;16.298;2024-03-25T00:08:30;1.95;;;1.20;;
43504;SDS011;29098;48.184;16.298;2024-03-25T00:10:55;2.15;;;1.17;;
43504;SDS011;29098;48.184;16.298;2024-03-25T00:13:21;2.08;;;1.08;;
43504;SDS011;29098;48.184;16.298;2024-03-25T00:15:46;1.63;;;0.88;;
43504;SDS011;29098;48.184;16.298;2024-03-25T00:18:12;2.22;;;1.27;;
43504;SDS011;29098;48.184;16.298;2024-03-25T00:20:37;2.25;;;0.95;;
43504;SDS011;29098;48.184;16.298;2024-03-25T00:23:03;2.78;;;1.10;;
43504;SDS011;29098;48.184;16.298;2024-03-25T00:25:29;4.45;;;1.10;;
43504;SDS011;29098;48.184;16.298;2024-03-25T00:27:54;2.17;;;0.88;;
43504;SDS011;29098;48.184;16.298;2024-03-25T00:30:20;3.08;;;1.15;;
43504;SDS011;29098;48.184;16.298;2024-03-25T00:32:45;2.03;;;0.80;;
43504;SDS011;29098;48.184;16.298;2024-03-25T00:35:11;2.28;;;1.17;;
43504;SDS011;29098;48.184;16.298;2024-03-25T00:37:37;2.53;;;1.10;;
43504;SDS011;29098;48.184;16.298;2024-03-25T00:40:03;3.28;;;1.17;;
43504;SDS011;29098;48.184;16.298;2024-03-25T00:42:29;2.72;;;1.10;;
43504;SDS011;29098;48.184;16.298;2024-03-25T00:44:55;1.88;;;0.90;;
43504;SDS011;29098;48.184;16.298;2024-03-25T00:47:20;2.03;;;1.20;;
43504;SDS011;29098;48.184;16.298;2024-03-25T00:49:47;2.75;;;1.55;;
43504;SDS011;29098;48.184;16.298;2024-03-25T00:52:12;2.05;;;1.17;;
43504;SDS011;29098;48.184;16.298;2024-03-25T00:54:38;2.20;;;1.30;;
43504;SDS011;29098;48.184;16.298;2024-03-25T00:57:03;3.67;;;1.05;;
43504;SDS011;29098;48.184;16.298;2024-03-25T00:59:29;1.83;;;1.13;;
43504;SDS011;29098;48.184;16.298;2024-03-25T01:01:54;1.92;;;1.10;;
43504;SDS011;29098;48.184;16.298;2024-03-25T01:04:20;2.58;;;1.13;;
43504;SDS011;29098;48.184;16.298;2024-03-25T01:06:46;2.47;;;1.20;;
43504;SDS011;29098;48.184;16.298;2024-03-25T01:09:11;3.42;;;1.25;;
43504;SDS011;29098;48.184;16.298;2024-03-25T01:11:38;2.22;;;1.20;;
43504;SDS011;29098;48.184;16.298;2024-03-25T01:14:03;2.55;;;1.20;;
43504;SDS011;29098;48.184;16.298;2024-03-25T01:16:29;2.53;;;1.23;;
43504;SDS011;29098;48.184;16.298;2024-03-25T01:18:55;4.68;;;1.52;;
43504;SDS011;29098;48.184;16.298;2024-03-25T01:21:20;2.33;;;1.20;;
43504;SDS011;29098;48.184;16.298;2024-03-25T01:23:46;3.20;;;1.80;;
43504;SDS011;29098;48.184;16.298;2024-03-25T01:26:11;3.05;;;1.52;;
43504;SDS011;29098;48.184;16.298;2024-03-25T01:28:36;4.00;;;1.70;;
43504;SDS011;29098;48.184;16.298;2024-03-25T01:31:02;4.03;;;1.48;;
43504;SDS011;29098;48.184;16.298;2024-03-25T01:33:27;4.55;;;1.70;;
43504;SDS011;29098;48.184;16.298;2024-03-25T01:35:53;2.85;;;1.50;;
43504;SDS011;29098;48.184;16.298;2024-03-25T01:38:20;5.75;;;1.73;;
43504;SDS011;29098;48.184;16.298;2024-03-25T01:40:46;2.70;;;1.27;;
43504;SDS011;29098;48.184;16.298;2024-03-25T01:43:12;2.63;;;1.30;;
43504;SDS011;29098;48.184;16.298;2024-03-25T01:45:38;2.65;;;1.20;;
43504;SDS011;29098;48.184;16.298;2024-03-25T01:48:07;3.90;;;1.73;;
43504;SDS011;29098;48.184;16.298;2024-03-25T01:50:36;2.83;;;1.42;;
43504;SDS011;29098;48.184;16.298;2024-03-25T01:53:04;3.38;;;1.67;;
43504;SDS011;29098;48.184;16.298;2024-03-25T01:55:31;2.20;;;1.27;;
43504;SDS011;29098;48.184;16.298;2024-03-25T01:57:59;3.45;;;1.38;;
43504;SDS011;29098;48.184;16.298;2024-03-25T02:00:26;2.97;;;1.38;;
43504;SDS011;29098;48.184;16.298;2024-03-25T02:02:52;4.45;;;1.38;;
43504;SDS011;29098;48.184;16.298;2024-03-25T02:05:19;3.30;;;1.15;;
43504;SDS011;29098;48.184;16.298;2024-03-25T02:07:45;2.85;;;1.33;;
43504;SDS011;29098;48.184;16.298;2024-03-25T02:10:12;1.92;;;1.10;;
43504;SDS011;29098;48.184;16.298;2024-03-25T02:12:44;1.48;;;1.17;;
43504;SDS011;29098;48.184;16.298;2024-03-25T02:15:11;2.40;;;1.50;;
43504;SDS011;29098;48.184;16.298;2024-03-25T02:17:38;1.65;;;1.10;;
43504;SDS011;29098;48.184;16.298;2024-03-25T02:20:04;3.20;;;1.48;;
43504;SDS011;29098;48.184;16.298;2024-03-25T02:22:33;1.80;;;1.20;;
43504;SDS011;29098;48.184;16.298;2024-03-25T02:25:03;2.30;;;1.30;;
43504;SDS011;29098;48.184;16.298;2024-03-25T02:27:33;2.97;;;1.50;;
43504;SDS011;29098;48.184;16.298;2024-03-25T02:30:05;3.00;;;1.30;;
43504;SDS011;29098;48.184;16.298;2024-03-25T02:32:32;3.05;;;1.60;;
43504;SDS011;29098;48.184;16.298;2024-03-25T02:34:59;3.03;;;1.50;;
43504;SDS011;29098;48.184;16.298;2024-03-25T02:37:26;2.75;;;1.50;;
43504;SDS011;29098;48.184;16.298;2024-03-25T02:39:56;3.13;;;1.80;;
43504;SDS011;29098;48.184;16.298;2024-03-25T02:42:24;3.72;;;1.95;;
43504;SDS011;29098;48.184;16.298;2024-03-25T02:44:51;3.03;;;1.70;;
43504;SDS011;29098;48.184;16.298;2024-03-25T02:47:18;2.55;;;1.45;;
43504;SDS011;29098;48.184;16.298;2024-03-25T02:49:45;4.10;;;1.83;;
43504;SDS011;29098;48.184;16.298;2024-03-25T02:52:11;3.17;;;1.80;;
43504;SDS011;29098;48.184;16.298;2024-03-25T02:54:36;3.97;;;1.85;;
43504;SDS011;29098;48.184;16.298;2024-03-25T02:57:02;3.20;;;1.67;;
43504;SDS011;29098;48.184;16.298;2024-03-25T02:59:28;2.80;;;1.75;;
43504;SDS011;29098;48.184;16.298;2024-03-25T03:01:53;3.63;;;2.10;;
43504;SDS011;29098;48.184;16.298;2024-03-25T03:04:19;4.55;;;1.77;;
43504;SDS011;29098;48.184;16.298;2024-03-25T03:06:45;4.57;;;2.80;;
43504;SDS011;29098;48.184;16.298;2024-03-25T03:09:10;3.83;;;2.13;;
43504;SDS011;29098;48.184;16.298;2024-03-25T03:11:36;6.18;;;2.60;;
43504;SDS011;29098;48.184;16.298;2024-03-25T03:14:01;3.70;;;2.28;;
43504;SDS011;29098;48.184;16.298;2024-03-25T03:16:27;4.78;;;2.28;;
43504;SDS011;29098;48.184;16.298;2024-03-25T03:18:54;6.15;;;2.40;;
43504;SDS011;29098;48.184;16.298;2024-03-25T03:21:19;3.97;;;2.00;;
43504;SDS011;29098;48.184;16.298;2024-03-25T03:23:45;3.88;;;2.05;;
43504;SDS011;29098;48.184;16.298;2024-03-25T03:26:10;4.15;;;2.08;;
43504;SDS011;29098;48.184;16.298;2024-03-25T03:28:36;4.28;;;1.90;;
43504;SDS011;29098;48.184;16.298;2024-03-25T03:31:02;5.15;;;2.15;;
43504;SDS011;29098;48.184;16.298;2024-03-25T03:33:27;3.00;;;1.85;;
43504;SDS011;29098;48.184;16.298;2024-03-25T03:35:53;4.10;;;1.88;;
43504;SDS011;29098;48.184;16.298;2024-03-25T03:38:21;3.95;;;2.00;;
43504;SDS011;29098;48.184;16.298;2024-03-25T03:40:59;2.88;;;1.65;;
43504;SDS011;29098;48.184;16.298;2024-03-25T03:43:25;3.83;;;1.90;;
43504;SDS011;29098;48.184;16.298;2024-03-25T03:45:51;5.10;;;1.75;;
43504;SDS011;29098;48.184;16.298;2024-03-25T03:48:17;3.13;;;1.90;;
43504;SDS011;29098;48.184;16.298;2024-03-25T03:50:42;4.50;;;1.67;;
43504;SDS011;29098;48.184;16.298;2024-03-25T03:53:08;3.45;;;1.70;;
43504;SDS011;29098;48.184;16.298;2024-03-25T03:55:33;5.75;;;2.10;;
43504;SDS011;29098;48.184;16.298;2024-03-25T03:57:59;6.35;;;1.98;;
43504;SDS011;29098;48.184;16.298;2024-03-25T04:00:24;3.20;;;1.77;;
43504;SDS011;29098;48.184;16.298;2024-03-25T04:02:50;2.63;;;1.63;;
43504;SDS011;29098;48.184;16.298;2024-03-25T04:05:15;3.67;;;2.00;;
43504;SDS011;29098;48.184;16.298;2024-03-25T04:07:41;4.28;;;1.85;;
43504;SDS011;29098;48.184;16.298;2024-03-25T04:10:08;3.58;;;2.13;;
43504;SDS011;29098;48.184;16.298;2024-03-25T04:12:34;4.43;;;2.05;;
43504;SDS011;29098;48.184;16.298;2024-03-25T04:15:00;2.85;;;1.77;;
43504;SDS011;29098;48.184;16.298;2024-03-25T04:17:26;4.38;;;1.92;;
43504;SDS011;29098;48.184;16.298;2024-03-25T04:19:52;4.22;;;2.50;;
43504;SDS011;29098;48.184;16.298;2024-03-25T04:22:17;4.43;;;2.20;;
43504;SDS011;29098;48.184;16.298;2024-03-25T04:24:43;3.30;;;1.73;;
43504;SDS011;29098;48.184;16.298;2024-03-25T04:27:09;6.35;;;2.22;;
43504;SDS011;29098;48.184;16.298;2024-03-25T04:29:34;3.35;;;1.98;;
43504;SDS011;29098;48.184;16.298;2024-03-25T04:32:00;3.72;;;2.20;;
43504;SDS011;29098;48.184;16.298;2024-03-25T04:34:25;4.38;;;2.75;;
43504;SDS011;29098;48.184;16.298;2024-03-25T04:36:51;4.47;;;2.10;;
43504;SDS011;29098;48.184;16.298;2024-03-25T04:39:16;3.25;;;1.85;;
43504;SDS011;29098;48.184;16.298;2024-03-25T04:41:43;7.25;;;2.20;;
43504;SDS011;29098;48.184;16.298;2024-03-25T04:44:09;4.40;;;2.13;;
43504;SDS011;29098;48.184;16.298;2024-03-25T04:46:34;4.50;;;2.28;;
43504;SDS011;29098;48.184;16.298;2024-03-25T04:49:00;4.72;;;2.00;;
43504;SDS011;29098;48.184;16.298;2024-03-25T04:51:25;6.10;;;2.63;;
43504;SDS011;29098;48.184;16.298;2024-03-25T04:53:51;4.07;;;2.38;;
43504;SDS011;29098;48.184;16.298;2024-03-25T04:56:18;5.72;;;2.70;;
43504;SDS011;29098;48.184;16.298;2024-03-25T04:58:43;4.45;;;2.20;;
43504;SDS011;29098;48.184;16.298;2024-03-25T05:01:09;4.85;;;2.58;;
43504;SDS011;29098;48.184;16.298;2024-03-25T05:03:34;4.65;;;2.53;;
43504;SDS011;29098;48.184;16.298;2024-03-25T05:06:00;8.02;;;3.95;;
43504;SDS011;29098;48.184;16.298;2024-03-25T05:08:25;5.10;;;2.30;;
43504;SDS011;29098;48.184;16.298;2024-03-25T05:10:51;3.85;;;2.35;;
43504;SDS011;29098;48.184;16.298;2024-03-25T05:13:16;2.95;;;1.80;;
43504;SDS011;29098;48.184;16.298;2024-03-25T05:15:49;4.45;;;2.40;;
43504;SDS011;29098;48.184;16.298;2024-03-25T05:18:15;4.72;;;2.10;;
43504;SDS011;29098;48.184;16.298;2024-03-25T05:20:42;6.60;;;2.65;;
43504;SDS011;29098;48.184;16.298;2024-03-25T05:23:07;5.00;;;2.28;;
43504;SDS011;29098;48.184;16.298;2024-03-25T05:25:34;3.42;;;2.00;;
43504;SDS011;29098;48.184;16.298;2024-03-25T05:28:02;5.25;;;2.38;;
43504;SDS011;29098;48.184;16.298;2024-03-25T05:30:28;4.93;;;2.20;;
43504;SDS011;29098;48.184;16.298;2024-03-25T05:32:53;3.88;;;2.15;;
43504;SDS011;29098;48.184;16.298;2024-03-25T05:35:19;4.07;;;2.00;;
43504;SDS011;29098;48.184;16.298;2024-03-25T05:37:44;5.50;;;2.30;;
43504;SDS011;29098;48.184;16.298;2024-03-25T05:40:10;5.35;;;2.60;;
43504;SDS011;29098;48.184;16.298;2024-03-25T05:42:40;3.90;;;2.17;;
43504;SDS011;29098;48.184;16.298;2024-03-25T05:45:05;3.92;;;2.25;;
43504;SDS011;29098;48.184;16.298;2024-03-25T05:47:32;3.65;;;2.00;;
43504;SDS011;29098;48.184;16.298;2024-03-25T05:49:57;3.63;;;2.08;;
43504;SDS011;29098;48.184;16.298;2024-03-25T05:52:23;4.20;;;2.20;;
43504;SDS011;29098;48.184;16.298;2024-03-25T05:54:48;5.70;;;1.92;;
43504;SDS011;29098;48.184;16.298;2024-03-25T05:57:14;3.65;;;2.10;;
43504;SDS011;29098;48.184;16.298;2024-03-25T05:59:39;4.97;;;2.13;;
43504;SDS011;29098;48.184;16.298;2024-03-25T06:02:05;4.97;;;2.00;;
43504;SDS011;29098;48.184;16.298;2024-03-25T06:04:30;5.47;;;2.03;;
43504;SDS011;29098;48.184;16.298;2024-03-25T06:06:56;5.95;;;2.30;;
43504;SDS011;29098;48.184;16.298;2024-03-25T06:09:21;7.57;;;2.58;;
43504;SDS011;29098;48.184;16.298;2024-03-25T06:11:48;3.40;;;2.08;;
43504;SDS011;29098;48.184;16.298;2024-03-25T06:14:13;7.03;;;2.60;;
43504;SDS011;29098;48.184;16.298;2024-03-25T06:16:39;5.10;;;2.42;;
43504;SDS011;29098;48.184;16.298;2024-03-25T06:19:04;6.13;;;2.10;;
43504;SDS011;29098;48.184;16.298;2024-03-25T06:21:29;5.00;;;2.53;;
43504;SDS011;29098;48.184;16.298;2024-03-25T06:23:55;5.22;;;2.70;;
43504;SDS011;29098;48.184;16.298;2024-03-25T06:26:21;4.00;;;2.53;;
43504;SDS011;29098;48.184;16.298;2024-03-25T06:28:47;4.20;;;2.58;;
43504;SDS011;29098;48.184;16.298;2024-03-25T06:31:12;5.30;;;2.80;;
43504;SDS011;29098;48.184;16.298;2024-03-25T06:33:56;4.03;;;2.45;;
43504;SDS011;29098;48.184;16.298;2024-03-25T06:36:42;5.43;;;3.05;;
43504;SDS011;29098;48.184;16.298;2024-03-25T06:39:09;5.28;;;2.75;;
43504;SDS011;29098;48.184;16.298;2024-03-25T06:41:34;5.05;;;2.38;;
43504;SDS011;29098;48.184;16.298;2024-03-25T06:44:00;6.60;;;2.88;;
43504;SDS011;29098;48.184;16.298;2024-03-25T06:46:26;8.73;;;2.97;;
43504;SDS011;29098;48.184;16.298;2024-03-25T06:48:51;4.28;;;2.53;;
43504;SDS011;29098;48.184;16.298;2024-03-25T06:51:19;5.28;;;2.60;;
43504;SDS011;29098;48.184;16.298;2024-03-25T06:53:45;5.50;;;2.40;;
43504;SDS011;29098;48.184;16.298;2024-03-25T06:56:11;4.47;;;2.25;;
43504;SDS011;29098;48.184;16.298;2024-03-25T06:58:37;5.82;;;2.70;;
43504;SDS011;29098;48.184;16.298;2024-03-25T07:01:06;5.30;;;2.50;;
43504;SDS011;29098;48.184;16.298;2024-03-25T07:03:33;4.18;;;2.25;;
43504;SDS011;29098;48.184;16.298;2024-03-25T07:05:59;4.47;;;2.15;;
43504;SDS011;29098;48.184;16.298;2024-03-25T07:08:26;4.20;;;2.08;;
43504;SDS011;29098;48.184;16.298;2024-03-25T07:10:52;4.60;;;2.38;;
43504;SDS011;29098;48.184;16.298;2024-03-25T07:13:19;3.88;;;2.45;;
43504;SDS011;29098;48.184;16.298;2024-03-25T07:15:45;8.52;;;2.67;;
43504;SDS011;29098;48.184;16.298;2024-03-25T07:18:11;4.07;;;2.40;;
43504;SDS011;29098;48.184;16.298;2024-03-25T07:20:41;5.13;;;2.55;;
43504;SDS011;29098;48.184;16.298;2024-03-25T07:23:07;4.25;;;2.05;;
43504;SDS011;29098;48.184;16.298;2024-03-25T07:25:33;6.47;;;2.40;;
43504;SDS011;29098;48.184;16.298;2024-03-25T07:27:59;4.85;;;2.70;;
43504;SDS011;29098;48.184;16.298;2024-03-25T07:30:25;4.13;;;2.40;;
43504;SDS011;29098;48.184;16.298;2024-03-25T07:32:57;4.65;;;2.20;;
43504;SDS011;29098;48.184;16.298;2024-03-25T07:35:23;4.75;;;2.20;;
43504;SDS011;29098;48.184;16.298;2024-03-25T07:37:49;5.05;;;2.25;;
43504;SDS011;29098;48.184;16.298;2024-03-25T07:40:18;5.20;;;2.13;;
43504;SDS011;29098;48.184;16.298;2024-03-25T07:42:47;5.63;;;2.38;;
43504;SDS011;29098;48.184;16.298;2024-03-25T07:45:14;4.88;;;2.35;;
43504;SDS011;29098;48.184;16.298;2024-03-25T07:47:40;4.13;;;2.28;;
43504;SDS011;29098;48.184;16.298;2024-03-25T07:50:06;4.47;;;2.55;;
43504;SDS011;29098;48.184;16.298;2024-03-25T07:52:32;4.50;;;1.70;;
43504;SDS011;29098;48.184;16.298;2024-03-25T07:54:57;3.28;;;1.98;;
43504;SDS011;29098;48.184;16.298;2024-03-25T07:57:23;3.97;;;1.83;;
43504;SDS011;29098;48.184;16.298;2024-03-25T07:59:50;3.88;;;2.33;;
43504;SDS011;29098;48.184;16.298;2024-03-25T08:02:15;5.68;;;2.22;;
43504;SDS011;29098;48.184;16.298;2024-03-25T08:04:41;4.95;;;2.47;;
43504;SDS011;29098;48.184;16.298;2024-03-25T08:07:07;4.45;;;2.38;;
43504;SDS011;29098;48.184;16.298;2024-03-25T08:09:32;5.55;;;1.92;;
43504;SDS011;29098;48.184;16.298;2024-03-25T08:11:58;2.70;;;1.40;;
43504;SDS011;29098;48.184;16.298;2024-03-25T08:14:24;2.90;;;1.67;;
43504;SDS011;29098;48.184;16.298;2024-03-25T08:16:49;3.95;;;1.80;;
43504;SDS011;29098;48.184;16.298;2024-03-25T08:19:15;3.38;;;1.58;;
43504;SDS011;29098;48.184;16.298;2024-03-25T08:21:41;3.85;;;1.60;;
43504;SDS011;29098;48.184;16.298;2024-03-25T08:24:07;4.78;;;1.80;;
43504;SDS011;29098;48.184;16.298;2024-03-25T08:26:33;4.25;;;1.60;;
43504;SDS011;29098;48.184;16.298;2024-03-25T08:28:58;3.97;;;2.30;;
43504;SDS011;29098;48.184;16.298;2024-03-25T08:31:24;5.38;;;2.17;;
43504;SDS011;29098;48.184;16.298;2024-03-25T08:33:50;5.90;;;1.88;;
43504;SDS011;29098;48.184;16.298;2024-03-25T08:36:16;3.45;;;1.90;;
43504;SDS011;29098;48.184;16.298;2024-03-25T08:38:43;4.43;;;2.15;;
43504;SDS011;29098;48.184;16.298;2024-03-25T08:41:09;7.10;;;2.08;;
43504;SDS011;29098;48.184;16.298;2024-03-25T08:43:35;6.90;;;2.17;;
43504;SDS011;29098;48.184;16.298;2024-03-25T08:46:01;5.20;;;2.28;;
43504;SDS011;29098;48.184;16.298;2024-03-25T08:48:26;4.93;;;2.30;;
43504;SDS011;29098;48.184;16.298;2024-03-25T08:50:52;4.88;;;2.38;;
43504;SDS011;29098;48.184;16.298;2024-03-25T08:53:18;4.70;;;1.77;;
43504;SDS011;29098;48.184;16.298;2024-03-25T08:55:46;4.85;;;1.65;;
43504;SDS011;29098;48.184;16.298;2024-03-25T08:58:15;6.25;;;2.15;;
43504;SDS011;29098;48.184;16.298;2024-03-25T09:00:43;6.15;;;2.00;;
43504;SDS011;29098;48.184;16.298;2024-03-25T09:03:09;5.57;;;2.38;;
43504;SDS011;29098;48.184;16.298;2024-03-25T09:05:35;3.03;;;1.60;;
43504;SDS011;29098;48.184;16.298;2024-03-25T09:08:04;3.80;;;1.70;;
43504;SDS011;29098;48.184;16.298;2024-03-25T09:10:31;2.70;;;1.50;;
43504;SDS011;29098;48.184;16.298;2024-03-25T09:13:15;5.32;;;1.42;;
43504;SDS011;29098;48.184;16.298;2024-03-25T09:15:41;4.32;;;1.67;;
43504;SDS011;29098;48.184;16.298;2024-03-25T09:18:07;2.80;;;1.50;;
43504;SDS011;29098;48.184;16.298;2024-03-25T09:20:32;3.53;;;1.85;;
43504;SDS011;29098;48.184;16.298;2024-03-25T09:22:58;2.80;;;1.42;;
43504;SDS011;29098;48.184;16.298;2024-03-25T09:25:24;2.67;;;1.45;;
43504;SDS011;29098;48.184;16.298;2024-03-25T09:27:50;5.18;;;1.80;;
43504;SDS011;29098;48.184;16.298;2024-03-25T09:30:16;2.80;;;1.50;;
43504;SDS011;29098;48.184;16.298;2024-03-25T09:32:44;4.97;;;1.92;;
43504;SDS011;29098;48.184;16.298;2024-03-25T09:35:10;5.25;;;1.55;;
43504;SDS011;29098;48.184;16.298;2024-03-25T09:37:36;3.05;;;1.70;;
43504;SDS011;29098;48.184;16.298;2024-03-25T09:40:03;9.95;;;2.47;;
43504;SDS011;29098;48.184;16.298;2024-03-25T09:42:40;3.15;;;1.83;;
43504;SDS011;29098;48.184;16.298;2024-03-25T09:45:11;4.47;;;1.65;;
43504;SDS011;29098;48.184;16.298;2024-03-25T09:47:38;3.03;;;1.67;;
43504;SDS011;29098;48.184;16.298;2024-03-25T09:50:06;5.97;;;1.70;;
43504;SDS011;29098;48.184;16.298;2024-03-25T09:52:33;3.33;;;1.67;;
43504;SDS011;29098;48.184;16.298;2024-03-25T09:54:59;6.45;;;1.77;;
43504;SDS011;29098;48.184;16.298;2024-03-25T09:57:25;4.35;;;1.80;;
43504;SDS011;29098;48.184;16.298;2024-03-25T09:59:51;3.70;;;1.80;;
43504;SDS011;29098;48.184;16.298;2024-03-25T10:02:16;5.70;;;1.85;;
43504;SDS011;29098;48.184;16.298;2024-03-25T10:04:46;4.05;;;1.60;;
43504;SDS011;29098;48.184;16.298;2024-03-25T10:07:31;4.35;;;1.70;;
43504;SDS011;29098;48.184;16.298;2024-03-25T10:09:57;3.22;;;1.60;;
43504;SDS011;29098;48.184;16.298;2024-03-25T10:12:23;5.85;;;2.90;;
43504;SDS011;29098;48.184;16.298;2024-03-25T10:14:49;2.95;;;1.52;;
43504;SDS011;29098;48.184;16.298;2024-03-25T10:17:15;2.85;;;1.73;;
43504;SDS011;29098;48.184;16.298;2024-03-25T10:19:40;5.22;;;2.17;;
43504;SDS011;29098;48.184;16.298;2024-03-25T10:22:07;6.38;;;1.55;;
43504;SDS011;29098;48.184;16.298;2024-03-25T10:24:43;4.32;;;1.65;;
43504;SDS011;29098;48.184;16.298;2024-03-25T10:27:31;2.35;;;1.15;;
43504;SDS011;29098;48.184;16.298;2024-03-25T10:29:55;3.05;;;1.33;;
43504;SDS011;29098;48.184;16.298;2024-03-25T10:32:21;4.25;;;1.60;;
43504;SDS011;29098;48.184;16.298;2024-03-25T10:34:53;6.93;;;1.40;;
43504;SDS011;29098;48.184;16.298;2024-03-25T10:37:19;3.67;;;1.95;;
43504;SDS011;29098;48.184;16.298;2024-03-25T10:39:47;5.78;;;1.50;;
43504;SDS011;29098;48.184;16.298;2024-03-25T10:42:16;4.43;;;1.58;;
43504;SDS011;29098;48.184;16.298;2024-03-25T10:44:44;3.83;;;1.98;;
43504;SDS011;29098;48.184;16.298;2024-03-25T10:47:10;3.47;;;1.92;;
43504;SDS011;29098;48.184;16.298;2024-03-25T10:49:48;4.18;;;1.35;;
43504;SDS011;29098;48.184;16.298;2024-03-25T10:52:16;4.47;;;2.03;;
43504;SDS011;29098;48.184;16.298;2024-03-25T10:54:44;4.78;;;1.55;;
43504;SDS011;29098;48.184;16.298;2024-03-25T10:57:12;4.65;;;2.45;;
43504;SDS011;29098;48.184;16.298;2024-03-25T10:59:39;4.88;;;3.05;;
43504;SDS011;29098;48.184;16.298;2024-03-25T11:02:08;4.50;;;2.95;;
43504;SDS011;29098;48.184;16.298;2024-03-25T11:04:34;3.83;;;2.03;;
43504;SDS011;29098;48.184;16.298;2024-03-25T11:07:10;4.00;;;1.60;;
43504;SDS011;29098;48.184;16.298;2024-03-25T11:09:37;5.20;;;2.35;;
43504;SDS011;29098;48.184;16.298;2024-03-25T11:12:03;4.07;;;1.73;;
43504;SDS011;29098;48.184;16.298;2024-03-25T11:14:29;4.57;;;1.55;;
43504;SDS011;29098;48.184;16.298;2024-03-25T11:16:57;4.18;;;1.38;;
43504;SDS011;29098;48.184;16.298;2024-03-25T11:19:30;2.10;;;1.10;;
43504;SDS011;29098;48.184;16.298;2024-03-25T11:22:07;5.43;;;1.50;;
43504;SDS011;29098;48.184;16.298;2024-03-25T11:24:34;3.55;;;1.60;;
43504;SDS011;29098;48.184;16.298;2024-03-25T11:27:06;3.72;;;1.15;;
43504;SDS011;29098;48.184;16.298;2024-03-25T11:29:32;4.30;;;1.70;;
43504;SDS011;29098;48.184;16.298;2024-03-25T11:32:02;2.17;;;1.10;;
43504;SDS011;29098;48.184;16.298;2024-03-25T11:34:29;4.13;;;1.30;;
43504;SDS011;29098;48.184;16.298;2024-03-25T11:36:54;4.55;;;1.67;;
43504;SDS011;29098;48.184;16.298;2024-03-25T11:39:22;2.95;;;1.20;;
43504;SDS011;29098;48.184;16.298;2024-03-25T11:41:48;3.95;;;2.10;;
43504;SDS011;29098;48.184;16.298;2024-03-25T11:44:14;4.38;;;1.65;;
43504;SDS011;29098;48.184;16.298;2024-03-25T11:46:40;4.40;;;1.80;;
43504;SDS011;29098;48.184;16.298;2024-03-25T11:49:15;3.47;;;1.45;;
43504;SDS011;29098;48.184;16.298;2024-03-25T11:51:43;4.55;;;1.83;;
43504;SDS011;29098;48.184;16.298;2024-03-25T11:54:11;3.55;;;1.75;;
43504;SDS011;29098;48.184;16.298;2024-03-25T11:56:37;4.28;;;1.55;;
43504;SDS011;29098;48.184;16.298;2024-03-25T11:59:06;3.55;;;1.30;;
43504;SDS011;29098;48.184;16.298;2024-03-25T12:01:32;4.63;;;1.35;;
43504;SDS011;29098;48.184;16.298;2024-03-25T12:04:09;3.63;;;1.20;;
43504;SDS011;29098;48.184;16.298;2024-03-25T12:06:35;4.05;;;1.63;;
43504;SDS011;29098;48.184;16.298;2024-03-25T12:09:01;3.47;;;1.70;;
43504;SDS011;29098;48.184;16.298;2024-03-25T12:11:45;2.47;;;1.20;;
43504;SDS011;29098;48.184;16.298;2024-03-25T12:14:10;3.30;;;1.45;;
43504;SDS011;29098;48.184;16.298;2024-03-25T12:16:36;5.38;;;1.60;;
43504;SDS011;29098;48.184;16.298;2024-03-25T12:19:02;2.00;;;1.25;;
43504;SDS011;29098;48.184;16.298;2024-03-25T12:21:27;1.77;;;1.15;;
43504;SDS011;29098;48.184;16.298;2024-03-25T12:23:53;2.78;;;1.27;;
43504;SDS011;29098;48.184;16.298;2024-03-25T12:26:19;2.83;;;1.40;;
43504;SDS011;29098;48.184;16.298;2024-03-25T12:28:45;1.92;;;1.20;;
43504;SDS011;29098;48.184;16.298;2024-03-25T12:31:10;4.00;;;1.52;;
43504;SDS011;29098;48.184;16.298;2024-03-25T12:33:42;4.68;;;1.42;;
43504;SDS011;29098;48.184;16.298;2024-03-25T12:36:08;2.63;;;1.38;;
43504;SDS011;29098;48.184;16.298;2024-03-25T12:38:36;5.00;;;1.80;;
43504;SDS011;29098;48.184;16.298;2024-03-25T12:41:09;3.40;;;1.45;;
43504;SDS011;29098;48.184;16.298;2024-03-25T12:43:44;3.35;;;1.42;;
43504;SDS011;29098;48.184;16.298;2024-03-25T12:46:10;2.17;;;1.40;;
43504;SDS011;29098;48.184;16.298;2024-03-25T12:48:37;3.65;;;1.30;;
43504;SDS011;29098;48.184;16.298;2024-03-25T12:51:03;4.43;;;1.65;;
43504;SDS011;29098;48.184;16.298;2024-03-25T12:53:29;5.70;;;1.50;;
43504;SDS011;29098;48.184;16.298;2024-03-25T12:55:55;2.60;;;1.38;;
43504;SDS011;29098;48.184;16.298;2024-03-25T12:58:21;3.00;;;1.35;;
43504;SDS011;29098;48.184;16.298;2024-03-25T13:00:46;3.42;;;1.30;;
43504;SDS011;29098;48.184;16.298;2024-03-25T13:03:12;2.10;;;1.20;;
43504;SDS011;29098;48.184;16.298;2024-03-25T13:05:38;6.28;;;1.63;;
43504;SDS011;29098;48.184;16.298;2024-03-25T13:08:04;4.00;;;1.30;;
43504;SDS011;29098;48.184;16.298;2024-03-25T13:10:29;5.20;;;1.77;;
43504;SDS011;29098;48.184;16.298;2024-03-25T13:12:56;2.58;;;1.35;;
43504;SDS011;29098;48.184;16.298;2024-03-25T13:15:22;2.60;;;1.10;;
43504;SDS011;29098;48.184;16.298;2024-03-25T13:17:47;4.65;;;1.70;;
43504;SDS011;29098;48.184;16.298;2024-03-25T13:20:13;5.32;;;1.20;;
43504;SDS011;29098;48.184;16.298;2024-03-25T13:22:39;2.05;;;1.00;;
43504;SDS011;29098;48.184;16.298;2024-03-25T13:25:05;2.03;;;1.00;;
43504;SDS011;29098;48.184;16.298;2024-03-25T13:27:31;2.15;;;1.00;;
43504;SDS011;29098;48.184;16.298;2024-03-25T13:29:56;2.55;;;1.20;;
43504;SDS011;29098;48.184;16.298;2024-03-25T13:32:22;2.85;;;1.25;;
43504;SDS011;29098;48.184;16.298;2024-03-25T13:34:48;2.95;;;1.25;;
43504;SDS011;29098;48.184;16.298;2024-03-25T13:37:14;4.07;;;1.00;;
43504;SDS011;29098;48.184;16.298;2024-03-25T13:39:40;2.40;;;1.38;;
43504;SDS011;29098;48.184;16.298;2024-03-25T13:42:05;2.47;;;1.30;;
43504;SDS011;29098;48.184;16.298;2024-03-25T13:44:30;3.45;;;1.20;;
43504;SDS011;29098;48.184;16.298;2024-03-25T13:46:56;3.40;;;1.45;;
43504;SDS011;29098;48.184;16.298;2024-03-25T13:49:21;3.28;;;1.45;;
43504;SDS011;29098;48.184;16.298;2024-03-25T13:51:50;3.30;;;1.52;;
43504;SDS011;29098;48.184;16.298;2024-03-25T13:54:21;2.70;;;1.33;;
43504;SDS011;29098;48.184;16.298;2024-03-25T13:56:46;2.05;;;1.10;;
43504;SDS011;29098;48.184;16.298;2024-03-25T13:59:12;3.42;;;0.90;;
43504;SDS011;29098;48.184;16.298;2024-03-25T14:01:37;3.80;;;1.83;;
43504;SDS011;29098;48.184;16.298;2024-03-25T14:04:03;12.80;;;4.78;;
43504;SDS011;29098;48.184;16.298;2024-03-25T14:06:29;5.88;;;1.65;;
43504;SDS011;29098;48.184;16.298;2024-03-25T14:08:54;4.47;;;1.15;;
43504;SDS011;29098;48.184;16.298;2024-03-25T14:11:20;2.38;;;1.10;;
43504;SDS011;29098;48.184;16.298;2024-03-25T14:13:45;2.63;;;1.17;;
43504;SDS011;29098;48.184;16.298;2024-03-25T14:16:11;6.32;;;1.77;;
43504;SDS011;29098;48.184;16.298;2024-03-25T14:18:36;3.42;;;1.63;;
43504;SDS011;29098;48.184;16.298;2024-03-25T14:21:01;3.03;;;1.40;;
43504;SDS011;29098;48.184;16.298;2024-03-25T14:23:27;3.50;;;1.23;;
43504;SDS011;29098;48.184;16.298;2024-03-25T14:25:52;2.30;;;1.48;;
43504;SDS011;29098;48.184;16.298;2024-03-25T14:28:18;4.40;;;1.42;;
43504;SDS011;29098;48.184;16.298;2024-03-25T14:30:43;2.60;;;1.40;;